Tri Cities Airport Pasco US
ICAO: KPSC
IATA: PSC
Category: Medium
Scheduled Services: Yes

Elevation: 410 ft
TransAlt. 18000 ft.

Airport Communications:
CHINOOK APP/DEP:128.75
ATIS:125.65
CLNC DEL:120
CTAF:135.3
GND:121.8
SEATTLE RDO:122.4
TWR:135.3
UNICOM:122.95

KPSC Zoom In..

Runways:

(A) RW 03L length 7711 ft width 150 ft
---- / hdg 30

(B) RW 03R length 4423 ft width 75 ft
---- / hdg 30

(C) RW 12 length 7703 ft width 150 ft
---- / hdg 119

(D) RW 21L length 4423 ft width 75 ft
---- / hdg 210

(E) RW 21R length 7711 ft width 150 ft
ILS 108.70 / hdg 210

(F) RW 30 length 7703 ft width 150 ft
---- / hdg 299

Location; KPSC
Day. 21 / Time. 23.53 Zulu
* Altimeter: 29.95
* Temperature: 08° c. 46.4°f.
* Wind from: 120° Speed 11 kn.
Dewpoint: 03° c.
Visibility: 10 Statute Miles.
Clouds: Overcast 7000 ft.

KPSC 212353Z 12011KT 10SM OVC070 08/03 A2995 RMK AO2 SLP146 60000 T00780033 10111 20061 55012


Wind From 120°
Speed 11 kn.

jpsM music video
CHECK IT OUT

jpsM - It Moves..

 
jpsmedia.com for Web Design  worldairports.se 2018   terms of use